sensor_id;sensor_type;location;lat;lon;timestamp;temperature;humidity
10702;DHT22;5402;50.004;8.246;2024-02-28T00:01:28;5.30;99.90
10702;DHT22;5402;50.004;8.246;2024-02-28T00:03:55;5.60;99.90
10702;DHT22;5402;50.004;8.246;2024-02-28T00:06:23;5.60;99.90
10702;DHT22;5402;50.004;8.246;2024-02-28T00:08:50;5.30;99.90
10702;DHT22;5402;50.004;8.246;2024-02-28T00:11:18;5.30;99.90
10702;DHT22;5402;50.004;8.246;2024-02-28T00:13:45;5.30;99.90
10702;DHT22;5402;50.004;8.246;2024-02-28T00:16:12;5.30;99.90
10702;DHT22;5402;50.004;8.246;2024-02-28T00:18:38;5.30;99.90
10702;DHT22;5402;50.004;8.246;2024-02-28T00:21:05;5.20;99.90
10702;DHT22;5402;50.004;8.246;2024-02-28T00:23:33;5.20;99.90
10702;DHT22;5402;50.004;8.246;2024-02-28T00:25:59;5.20;99.90
10702;DHT22;5402;50.004;8.246;2024-02-28T00:28:27;5.20;99.90
10702;DHT22;5402;50.004;8.246;2024-02-28T00:30:53;5.20;99.90
10702;DHT22;5402;50.004;8.246;2024-02-28T00:33:20;5.20;99.90
10702;DHT22;5402;50.004;8.246;2024-02-28T00:35:50;5.20;99.90
10702;DHT22;5402;50.004;8.246;2024-02-28T00:38:19;5.10;99.90
10702;DHT22;5402;50.004;8.246;2024-02-28T00:40:47;5.10;99.90
10702;DHT22;5402;50.004;8.246;2024-02-28T00:43:13;5.10;99.90
10702;DHT22;5402;50.004;8.246;2024-02-28T00:45:40;5.00;99.90
10702;DHT22;5402;50.004;8.246;2024-02-28T00:48:07;5.00;99.90
10702;DHT22;5402;50.004;8.246;2024-02-28T00:50:33;5.00;99.90
10702;DHT22;5402;50.004;8.246;2024-02-28T00:53:00;5.00;99.90
10702;DHT22;5402;50.004;8.246;2024-02-28T00:55:27;5.00;99.90
10702;DHT22;5402;50.004;8.246;2024-02-28T00:57:55;4.90;99.90
10702;DHT22;5402;50.004;8.246;2024-02-28T01:00:22;4.80;99.90
10702;DHT22;5402;50.004;8.246;2024-02-28T01:02:47;4.80;99.90
10702;DHT22;5402;50.004;8.246;2024-02-28T01:05:14;4.80;99.90
10702;DHT22;5402;50.004;8.246;2024-02-28T01:07:41;4.80;99.90
10702;DHT22;5402;50.004;8.246;2024-02-28T01:10:08;4.70;99.90
10702;DHT22;5402;50.004;8.246;2024-02-28T01:12:35;4.70;99.90
10702;DHT22;5402;50.004;8.246;2024-02-28T01:15:04;4.70;99.90
10702;DHT22;5402;50.004;8.246;2024-02-28T01:17:31;4.70;99.90
10702;DHT22;5402;50.004;8.246;2024-02-28T01:19:57;4.60;99.90
10702;DHT22;5402;50.004;8.246;2024-02-28T01:22:24;4.60;99.90
10702;DHT22;5402;50.004;8.246;2024-02-28T01:24:51;4.70;99.90
10702;DHT22;5402;50.004;8.246;2024-02-28T01:27:17;4.70;99.90
10702;DHT22;5402;50.004;8.246;2024-02-28T01:29:44;4.80;99.90
10702;DHT22;5402;50.004;8.246;2024-02-28T01:32:12;4.80;99.90
10702;DHT22;5402;50.004;8.246;2024-02-28T01:34:39;5.00;99.90
10702;DHT22;5402;50.004;8.246;2024-02-28T01:37:05;5.00;99.90
10702;DHT22;5402;50.004;8.246;2024-02-28T01:39:32;5.10;99.90
10702;DHT22;5402;50.004;8.246;2024-02-28T01:41:59;5.10;99.90
10702;DHT22;5402;50.004;8.246;2024-02-28T01:44:25;5.10;99.90
10702;DHT22;5402;50.004;8.246;2024-02-28T01:46:53;5.10;99.90
10702;DHT22;5402;50.004;8.246;2024-02-28T01:49:23;5.10;99.90
10702;DHT22;5402;50.004;8.246;2024-02-28T01:51:50;5.10;99.90
10702;DHT22;5402;50.004;8.246;2024-02-28T01:54:20;5.10;99.90
10702;DHT22;5402;50.004;8.246;2024-02-28T01:56:46;5.00;99.90
10702;DHT22;5402;50.004;8.246;2024-02-28T01:59:13;5.00;99.90
10702;DHT22;5402;50.004;8.246;2024-02-28T02:01:40;5.00;99.90
10702;DHT22;5402;50.004;8.246;2024-02-28T02:04:08;4.90;99.90
10702;DHT22;5402;50.004;8.246;2024-02-28T02:06:38;4.90;99.90
10702;DHT22;5402;50.004;8.246;2024-02-28T02:09:05;4.90;99.90
10702;DHT22;5402;50.004;8.246;2024-02-28T02:11:32;4.80;99.90
10702;DHT22;5402;50.004;8.246;2024-02-28T02:13:59;4.80;99.90
10702;DHT22;5402;50.004;8.246;2024-02-28T02:16:26;4.80;99.90
10702;DHT22;5402;50.004;8.246;2024-02-28T02:18:53;4.80;99.90
10702;DHT22;5402;50.004;8.246;2024-02-28T02:21:24;4.80;99.90
10702;DHT22;5402;50.004;8.246;2024-02-28T02:23:54;4.80;99.90
10702;DHT22;5402;50.004;8.246;2024-02-28T02:26:21;4.70;99.90
10702;DHT22;5402;50.004;8.246;2024-02-28T02:28:48;4.70;99.90
10702;DHT22;5402;50.004;8.246;2024-02-28T02:31:14;4.70;99.90
10702;DHT22;5402;50.004;8.246;2024-02-28T02:33:41;4.60;99.90
10702;DHT22;5402;50.004;8.246;2024-02-28T02:36:08;4.60;99.90
10702;DHT22;5402;50.004;8.246;2024-02-28T02:38:34;4.50;99.90
10702;DHT22;5402;50.004;8.246;2024-02-28T02:41:03;4.50;99.90
10702;DHT22;5402;50.004;8.246;2024-02-28T02:43:29;4.50;99.90
10702;DHT22;5402;50.004;8.246;2024-02-28T02:45:55;4.50;99.90
10702;DHT22;5402;50.004;8.246;2024-02-28T02:48:22;4.50;99.90
10702;DHT22;5402;50.004;8.246;2024-02-28T02:50:48;4.50;99.90
10702;DHT22;5402;50.004;8.246;2024-02-28T02:53:15;4.50;99.90
10702;DHT22;5402;50.004;8.246;2024-02-28T02:55:42;4.40;99.90
10702;DHT22;5402;50.004;8.246;2024-02-28T02:58:10;4.30;99.90
10702;DHT22;5402;50.004;8.246;2024-02-28T03:00:37;4.30;99.90
10702;DHT22;5402;50.004;8.246;2024-02-28T03:03:04;4.30;99.90
10702;DHT22;5402;50.004;8.246;2024-02-28T03:05:31;4.30;99.90
10702;DHT22;5402;50.004;8.246;2024-02-28T03:07:58;4.30;99.90
10702;DHT22;5402;50.004;8.246;2024-02-28T03:10:24;4.20;99.90
10702;DHT22;5402;50.004;8.246;2024-02-28T03:12:51;4.20;99.90
10702;DHT22;5402;50.004;8.246;2024-02-28T03:15:19;4.20;99.90
10702;DHT22;5402;50.004;8.246;2024-02-28T03:17:46;4.20;99.90
10702;DHT22;5402;50.004;8.246;2024-02-28T03:20:12;4.20;99.90
10702;DHT22;5402;50.004;8.246;2024-02-28T03:22:39;4.10;99.90
10702;DHT22;5402;50.004;8.246;2024-02-28T03:25:07;4.00;99.90
10702;DHT22;5402;50.004;8.246;2024-02-28T03:27:34;3.90;99.90
10702;DHT22;5402;50.004;8.246;2024-02-28T03:30:01;3.70;99.90
10702;DHT22;5402;50.004;8.246;2024-02-28T03:32:30;3.60;99.90
10702;DHT22;5402;50.004;8.246;2024-02-28T03:34:57;3.50;99.90
10702;DHT22;5402;50.004;8.246;2024-02-28T03:37:24;3.40;99.90
10702;DHT22;5402;50.004;8.246;2024-02-28T03:39:51;3.40;99.90
10702;DHT22;5402;50.004;8.246;2024-02-28T03:42:18;3.30;99.90
10702;DHT22;5402;50.004;8.246;2024-02-28T03:44:45;3.10;99.90
10702;DHT22;5402;50.004;8.246;2024-02-28T03:47:11;3.00;99.90
10702;DHT22;5402;50.004;8.246;2024-02-28T03:49:39;3.00;99.90
10702;DHT22;5402;50.004;8.246;2024-02-28T03:52:06;3.00;99.90
10702;DHT22;5402;50.004;8.246;2024-02-28T03:54:33;3.00;99.90
10702;DHT22;5402;50.004;8.246;2024-02-28T03:56:59;3.00;99.90
10702;DHT22;5402;50.004;8.246;2024-02-28T03:59:26;3.10;99.90
10702;DHT22;5402;50.004;8.246;2024-02-28T04:01:53;3.10;99.90
10702;DHT22;5402;50.004;8.246;2024-02-28T04:04:19;3.20;99.90
10702;DHT22;5402;50.004;8.246;2024-02-28T04:06:47;3.20;99.90
10702;DHT22;5402;50.004;8.246;2024-02-28T04:09:14;3.20;99.90
10702;DHT22;5402;50.004;8.246;2024-02-28T04:11:41;3.20;99.90
10702;DHT22;5402;50.004;8.246;2024-02-28T04:14:08;3.10;99.90
10702;DHT22;5402;50.004;8.246;2024-02-28T04:16:35;3.00;99.90
10702;DHT22;5402;50.004;8.246;2024-02-28T04:19:07;2.80;99.90
10702;DHT22;5402;50.004;8.246;2024-02-28T04:21:33;2.60;99.90
10702;DHT22;5402;50.004;8.246;2024-02-28T04:24:01;2.50;99.90
10702;DHT22;5402;50.004;8.246;2024-02-28T04:26:28;2.50;99.90
10702;DHT22;5402;50.004;8.246;2024-02-28T04:28:55;2.50;99.90
10702;DHT22;5402;50.004;8.246;2024-02-28T04:31:22;2.40;99.90
10702;DHT22;5402;50.004;8.246;2024-02-28T04:33:49;2.40;99.90
10702;DHT22;5402;50.004;8.246;2024-02-28T04:36:15;2.30;99.90
10702;DHT22;5402;50.004;8.246;2024-02-28T04:38:42;2.50;99.90
10702;DHT22;5402;50.004;8.246;2024-02-28T04:41:10;2.60;99.90
10702;DHT22;5402;50.004;8.246;2024-02-28T04:43:37;2.60;99.90
10702;DHT22;5402;50.004;8.246;2024-02-28T04:46:03;2.60;99.90
10702;DHT22;5402;50.004;8.246;2024-02-28T04:48:30;2.70;99.90
10702;DHT22;5402;50.004;8.246;2024-02-28T04:50:57;2.70;99.90
10702;DHT22;5402;50.004;8.246;2024-02-28T04:53:24;2.70;99.90
10702;DHT22;5402;50.004;8.246;2024-02-28T04:55:51;2.70;99.90
10702;DHT22;5402;50.004;8.246;2024-02-28T04:58:19;2.80;99.90
10702;DHT22;5402;50.004;8.246;2024-02-28T05:00:46;2.70;99.90
10702;DHT22;5402;50.004;8.246;2024-02-28T05:03:12;2.80;99.90
10702;DHT22;5402;50.004;8.246;2024-02-28T05:05:39;2.80;99.90
10702;DHT22;5402;50.004;8.246;2024-02-28T05:08:06;2.70;99.90
10702;DHT22;5402;50.004;8.246;2024-02-28T05:10:33;2.60;99.90
10702;DHT22;5402;50.004;8.246;2024-02-28T05:13:00;2.50;99.90
10702;DHT22;5402;50.004;8.246;2024-02-28T05:15:29;2.50;99.90
10702;DHT22;5402;50.004;8.246;2024-02-28T05:17:56;2.50;99.90
10702;DHT22;5402;50.004;8.246;2024-02-28T05:20:23;2.50;99.90
10702;DHT22;5402;50.004;8.246;2024-02-28T05:22:48;2.50;99.90
10702;DHT22;5402;50.004;8.246;2024-02-28T05:25:15;2.40;99.90
10702;DHT22;5402;50.004;8.246;2024-02-28T05:27:42;2.40;99.90
10702;DHT22;5402;50.004;8.246;2024-02-28T05:30:11;2.30;99.90
10702;DHT22;5402;50.004;8.246;2024-02-28T05:32:39;2.10;99.90
10702;DHT22;5402;50.004;8.246;2024-02-28T05:35:06;2.00;99.90
10702;DHT22;5402;50.004;8.246;2024-02-28T05:37:37;2.10;99.90
10702;DHT22;5402;50.004;8.246;2024-02-28T05:40:07;2.10;99.90
10702;DHT22;5402;50.004;8.246;2024-02-28T05:42:34;1.90;99.90
10702;DHT22;5402;50.004;8.246;2024-02-28T05:45:01;2.00;99.90
10702;DHT22;5402;50.004;8.246;2024-02-28T05:47:28;2.00;99.90
10702;DHT22;5402;50.004;8.246;2024-02-28T05:49:56;1.90;99.90
10702;DHT22;5402;50.004;8.246;2024-02-28T05:52:24;1.80;99.90
10702;DHT22;5402;50.004;8.246;2024-02-28T05:54:51;1.70;99.90
10702;DHT22;5402;50.004;8.246;2024-02-28T05:57:17;1.50;99.90
10702;DHT22;5402;50.004;8.246;2024-02-28T05:59:44;1.70;99.90
10702;DHT22;5402;50.004;8.246;2024-02-28T06:02:11;1.60;99.90
10702;DHT22;5402;50.004;8.246;2024-02-28T06:04:38;1.70;99.90
10702;DHT22;5402;50.004;8.246;2024-02-28T06:07:06;1.70;99.90
10702;DHT22;5402;50.004;8.246;2024-02-28T06:09:33;1.60;99.90
10702;DHT22;5402;50.004;8.246;2024-02-28T06:11:59;1.60;99.90
10702;DHT22;5402;50.004;8.246;2024-02-28T06:14:27;1.60;99.90
10702;DHT22;5402;50.004;8.246;2024-02-28T06:16:54;1.50;99.90
10702;DHT22;5402;50.004;8.246;2024-02-28T06:19:20;1.20;99.90
10702;DHT22;5402;50.004;8.246;2024-02-28T06:21:47;1.10;99.90
10702;DHT22;5402;50.004;8.246;2024-02-28T06:24:15;1.10;99.90
10702;DHT22;5402;50.004;8.246;2024-02-28T06:26:42;1.20;99.90
10702;DHT22;5402;50.004;8.246;2024-02-28T06:29:08;1.40;99.90
10702;DHT22;5402;50.004;8.246;2024-02-28T06:31:35;1.40;99.90
10702;DHT22;5402;50.004;8.246;2024-02-28T06:34:03;1.50;99.90
10702;DHT22;5402;50.004;8.246;2024-02-28T06:36:29;1.60;99.90
10702;DHT22;5402;50.004;8.246;2024-02-28T06:38:56;1.60;99.90
10702;DHT22;5402;50.004;8.246;2024-02-28T06:41:24;1.60;99.90
10702;DHT22;5402;50.004;8.246;2024-02-28T06:43:51;1.60;99.90
10702;DHT22;5402;50.004;8.246;2024-02-28T06:46:18;1.60;99.90
10702;DHT22;5402;50.004;8.246;2024-02-28T06:48:44;1.80;99.90
10702;DHT22;5402;50.004;8.246;2024-02-28T06:51:11;1.90;99.90
10702;DHT22;5402;50.004;8.246;2024-02-28T06:53:38;2.00;99.90
10702;DHT22;5402;50.004;8.246;2024-02-28T06:56:05;2.10;99.90
10702;DHT22;5402;50.004;8.246;2024-02-28T06:58:33;2.20;99.90
10702;DHT22;5402;50.004;8.246;2024-02-28T07:01:00;2.20;99.90
10702;DHT22;5402;50.004;8.246;2024-02-28T07:03:26;1.90;99.90
10702;DHT22;5402;50.004;8.246;2024-02-28T07:05:53;1.80;99.90
10702;DHT22;5402;50.004;8.246;2024-02-28T07:08:20;1.80;99.90
10702;DHT22;5402;50.004;8.246;2024-02-28T07:10:47;1.90;99.90
10702;DHT22;5402;50.004;8.246;2024-02-28T07:13:19;2.10;99.90
10702;DHT22;5402;50.004;8.246;2024-02-28T07:15:47;2.30;99.90
10702;DHT22;5402;50.004;8.246;2024-02-28T07:18:14;2.50;99.90
10702;DHT22;5402;50.004;8.246;2024-02-28T07:20:41;2.60;99.90
10702;DHT22;5402;50.004;8.246;2024-02-28T07:23:08;2.70;99.90
10702;DHT22;5402;50.004;8.246;2024-02-28T07:25:34;2.70;99.90
10702;DHT22;5402;50.004;8.246;2024-02-28T07:28:01;2.70;99.90
10702;DHT22;5402;50.004;8.246;2024-02-28T07:30:28;3.40;99.90
10702;DHT22;5402;50.004;8.246;2024-02-28T07:32:56;2.80;99.90
10702;DHT22;5402;50.004;8.246;2024-02-28T07:35:23;3.20;99.90
10702;DHT22;5402;50.004;8.246;2024-02-28T07:37:50;2.90;99.90
10702;DHT22;5402;50.004;8.246;2024-02-28T07:40:17;2.90;99.90
10702;DHT22;5402;50.004;8.246;2024-02-28T07:42:44;3.00;99.90
10702;DHT22;5402;50.004;8.246;2024-02-28T07:45:11;3.00;99.90
10702;DHT22;5402;50.004;8.246;2024-02-28T07:47:38;3.00;99.90
10702;DHT22;5402;50.004;8.246;2024-02-28T07:50:07;3.10;99.90
10702;DHT22;5402;50.004;8.246;2024-02-28T07:52:34;3.10;99.90
10702;DHT22;5402;50.004;8.246;2024-02-28T07:55:03;3.10;99.90
10702;DHT22;5402;50.004;8.246;2024-02-28T07:57:31;3.20;99.90
10702;DHT22;5402;50.004;8.246;2024-02-28T07:59:58;3.30;99.90
10702;DHT22;5402;50.004;8.246;2024-02-28T08:02:25;3.40;99.90
10702;DHT22;5402;50.004;8.246;2024-02-28T08:04:52;3.50;99.90
10702;DHT22;5402;50.004;8.246;2024-02-28T08:07:20;3.50;99.90
10702;DHT22;5402;50.004;8.246;2024-02-28T08:09:46;3.50;99.90
10702;DHT22;5402;50.004;8.246;2024-02-28T08:12:13;3.70;99.90
10702;DHT22;5402;50.004;8.246;2024-02-28T08:14:39;3.80;99.90
10702;DHT22;5402;50.004;8.246;2024-02-28T08:17:05;3.90;99.90
10702;DHT22;5402;50.004;8.246;2024-02-28T08:19:32;4.00;99.90
10702;DHT22;5402;50.004;8.246;2024-02-28T08:22:00;4.00;99.90
10702;DHT22;5402;50.004;8.246;2024-02-28T08:24:28;4.20;99.90
10702;DHT22;5402;50.004;8.246;2024-02-28T08:26:55;4.30;99.90
10702;DHT22;5402;50.004;8.246;2024-02-28T08:29:22;4.40;99.90
10702;DHT22;5402;50.004;8.246;2024-02-28T08:31:48;4.60;99.90
10702;DHT22;5402;50.004;8.246;2024-02-28T08:34:15;4.70;99.90
10702;DHT22;5402;50.004;8.246;2024-02-28T08:36:43;4.90;99.90
10702;DHT22;5402;50.004;8.246;2024-02-28T08:39:10;4.90;99.90
10702;DHT22;5402;50.004;8.246;2024-02-28T08:41:38;5.00;99.90
10702;DHT22;5402;50.004;8.246;2024-02-28T08:44:04;5.10;99.90
10702;DHT22;5402;50.004;8.246;2024-02-28T08:46:31;5.30;99.90
10702;DHT22;5402;50.004;8.246;2024-02-28T08:48:58;5.30;99.90
10702;DHT22;5402;50.004;8.246;2024-02-28T08:51:25;5.50;99.90
10702;DHT22;5402;50.004;8.246;2024-02-28T08:53:52;5.70;99.90
10702;DHT22;5402;50.004;8.246;2024-02-28T08:56:20;5.80;99.90
10702;DHT22;5402;50.004;8.246;2024-02-28T08:58:50;5.90;99.90
10702;DHT22;5402;50.004;8.246;2024-02-28T09:01:16;6.00;99.90
10702;DHT22;5402;50.004;8.246;2024-02-28T09:03:43;6.10;99.90
10702;DHT22;5402;50.004;8.246;2024-02-28T09:06:10;6.30;99.90
10702;DHT22;5402;50.004;8.246;2024-02-28T09:08:37;6.40;99.90
10702;DHT22;5402;50.004;8.246;2024-02-28T09:11:03;7.00;99.90
10702;DHT22;5402;50.004;8.246;2024-02-28T09:13:31;6.60;99.90
10702;DHT22;5402;50.004;8.246;2024-02-28T09:15:59;6.60;99.90
10702;DHT22;5402;50.004;8.246;2024-02-28T09:18:26;6.70;99.90
10702;DHT22;5402;50.004;8.246;2024-02-28T09:20:53;6.80;99.90
10702;DHT22;5402;50.004;8.246;2024-02-28T09:23:19;6.80;99.90
10702;DHT22;5402;50.004;8.246;2024-02-28T09:25:46;6.90;99.90
10702;DHT22;5402;50.004;8.246;2024-02-28T09:28:13;7.00;99.90
10702;DHT22;5402;50.004;8.246;2024-02-28T09:30:41;7.00;99.90
10702;DHT22;5402;50.004;8.246;2024-02-28T09:33:09;7.10;99.90
10702;DHT22;5402;50.004;8.246;2024-02-28T09:35:37;7.30;99.90
10702;DHT22;5402;50.004;8.246;2024-02-28T09:38:04;7.30;99.90
10702;DHT22;5402;50.004;8.246;2024-02-28T09:40:31;7.40;99.90
10702;DHT22;5402;50.004;8.246;2024-02-28T09:43:01;7.50;99.90
10702;DHT22;5402;50.004;8.246;2024-02-28T09:45:29;7.40;99.90
10702;DHT22;5402;50.004;8.246;2024-02-28T09:47:58;7.40;99.90
10702;DHT22;5402;50.004;8.246;2024-02-28T09:50:27;8.10;99.90
10702;DHT22;5402;50.004;8.246;2024-02-28T09:52:54;7.60;99.90
10702;DHT22;5402;50.004;8.246;2024-02-28T09:55:21;7.60;99.90
10702;DHT22;5402;50.004;8.246;2024-02-28T09:57:48;7.50;99.90
10702;DHT22;5402;50.004;8.246;2024-02-28T10:00:19;7.70;99.90
10702;DHT22;5402;50.004;8.246;2024-02-28T10:02:47;7.80;99.90
10702;DHT22;5402;50.004;8.246;2024-02-28T10:05:15;7.90;99.90
10702;DHT22;5402;50.004;8.246;2024-02-28T10:07:45;7.90;99.90
10702;DHT22;5402;50.004;8.246;2024-02-28T10:10:12;7.90;99.90
10702;DHT22;5402;50.004;8.246;2024-02-28T10:12:41;8.00;99.90
10702;DHT22;5402;50.004;8.246;2024-02-28T10:15:08;8.00;99.90
10702;DHT22;5402;50.004;8.246;2024-02-28T10:17:35;8.10;99.90
10702;DHT22;5402;50.004;8.246;2024-02-28T10:20:03;8.10;99.90
10702;DHT22;5402;50.004;8.246;2024-02-28T10:22:34;8.20;99.90
10702;DHT22;5402;50.004;8.246;2024-02-28T10:25:02;8.20;99.90
10702;DHT22;5402;50.004;8.246;2024-02-28T10:27:32;8.20;99.90
10702;DHT22;5402;50.004;8.246;2024-02-28T10:29:59;8.90;99.90
10702;DHT22;5402;50.004;8.246;2024-02-28T10:32:27;8.30;99.90
10702;DHT22;5402;50.004;8.246;2024-02-28T10:34:54;8.40;99.90
10702;DHT22;5402;50.004;8.246;2024-02-28T10:37:20;8.40;99.90
10702;DHT22;5402;50.004;8.246;2024-02-28T10:39:49;8.60;99.90
10702;DHT22;5402;50.004;8.246;2024-02-28T10:42:19;8.80;99.90
10702;DHT22;5402;50.004;8.246;2024-02-28T10:44:50;8.70;99.90
10702;DHT22;5402;50.004;8.246;2024-02-28T10:47:17;8.80;99.90
10702;DHT22;5402;50.004;8.246;2024-02-28T10:49:44;8.90;99.90
10702;DHT22;5402;50.004;8.246;2024-02-28T10:52:12;9.10;99.90
10702;DHT22;5402;50.004;8.246;2024-02-28T10:54:40;9.10;99.90
10702;DHT22;5402;50.004;8.246;2024-02-28T10:57:09;9.20;99.90
10702;DHT22;5402;50.004;8.246;2024-02-28T10:59:40;9.30;99.90
10702;DHT22;5402;50.004;8.246;2024-02-28T11:02:09;9.50;99.90
10702;DHT22;5402;50.004;8.246;2024-02-28T11:04:36;9.60;99.90
10702;DHT22;5402;50.004;8.246;2024-02-28T11:07:03;9.50;99.90
10702;DHT22;5402;50.004;8.246;2024-02-28T11:09:30;9.40;99.90
10702;DHT22;5402;50.004;8.246;2024-02-28T11:11:57;9.30;99.90
10702;DHT22;5402;50.004;8.246;2024-02-28T11:14:24;9.30;99.90
10702;DHT22;5402;50.004;8.246;2024-02-28T11:17:02;9.30;99.90
10702;DHT22;5402;50.004;8.246;2024-02-28T11:19:30;9.30;99.90
10702;DHT22;5402;50.004;8.246;2024-02-28T11:21:59;9.40;99.90
10702;DHT22;5402;50.004;8.246;2024-02-28T11:24:29;9.40;99.90
10702;DHT22;5402;50.004;8.246;2024-02-28T11:26:56;9.40;99.90
10702;DHT22;5402;50.004;8.246;2024-02-28T11:29:25;9.40;99.90
10702;DHT22;5402;50.004;8.246;2024-02-28T11:31:52;9.30;99.90
10702;DHT22;5402;50.004;8.246;2024-02-28T11:34:21;9.50;99.90
10702;DHT22;5402;50.004;8.246;2024-02-28T11:36:48;9.50;99.90
10702;DHT22;5402;50.004;8.246;2024-02-28T11:39:15;9.60;99.90
10702;DHT22;5402;50.004;8.246;2024-02-28T11:41:42;9.80;99.90
10702;DHT22;5402;50.004;8.246;2024-02-28T11:44:12;10.00;99.90
10702;DHT22;5402;50.004;8.246;2024-02-28T11:46:43;10.00;99.90
10702;DHT22;5402;50.004;8.246;2024-02-28T11:49:10;10.10;99.90
10702;DHT22;5402;50.004;8.246;2024-02-28T11:51:40;9.80;99.90
10702;DHT22;5402;50.004;8.246;2024-02-28T11:54:07;9.90;99.90
10702;DHT22;5402;50.004;8.246;2024-02-28T11:56:34;10.00;99.90
10702;DHT22;5402;50.004;8.246;2024-02-28T11:59:03;10.20;99.90
10702;DHT22;5402;50.004;8.246;2024-02-28T12:01:34;10.40;99.90
10702;DHT22;5402;50.004;8.246;2024-02-28T12:04:03;10.40;99.90
10702;DHT22;5402;50.004;8.246;2024-02-28T12:06:30;10.20;99.90
10702;DHT22;5402;50.004;8.246;2024-02-28T12:08:58;10.10;99.90
10702;DHT22;5402;50.004;8.246;2024-02-28T12:11:25;10.30;99.90
10702;DHT22;5402;50.004;8.246;2024-02-28T12:13:55;10.10;99.90
10702;DHT22;5402;50.004;8.246;2024-02-28T12:16:23;10.10;99.90
10702;DHT22;5402;50.004;8.246;2024-02-28T12:18:50;9.80;99.90
10702;DHT22;5402;50.004;8.246;2024-02-28T12:21:17;9.90;99.90
10702;DHT22;5402;50.004;8.246;2024-02-28T12:23:44;10.00;99.90
10702;DHT22;5402;50.004;8.246;2024-02-28T12:26:12;10.20;99.90
10702;DHT22;5402;50.004;8.246;2024-02-28T12:28:39;10.30;99.90
10702;DHT22;5402;50.004;8.246;2024-02-28T12:31:06;10.10;99.90
10702;DHT22;5402;50.004;8.246;2024-02-28T12:33:34;9.90;99.90
10702;DHT22;5402;50.004;8.246;2024-02-28T12:36:01;9.90;99.90
10702;DHT22;5402;50.004;8.246;2024-02-28T12:38:28;10.00;99.90
10702;DHT22;5402;50.004;8.246;2024-02-28T12:40:56;10.00;99.90
10702;DHT22;5402;50.004;8.246;2024-02-28T12:43:25;10.00;99.90
10702;DHT22;5402;50.004;8.246;2024-02-28T12:45:52;10.30;99.90
10702;DHT22;5402;50.004;8.246;2024-02-28T12:48:18;10.40;99.90
10702;DHT22;5402;50.004;8.246;2024-02-28T12:50:45;10.40;99.90
10702;DHT22;5402;50.004;8.246;2024-02-28T12:53:12;10.40;99.90
10702;DHT22;5402;50.004;8.246;2024-02-28T12:55:39;10.30;99.90
10702;DHT22;5402;50.004;8.246;2024-02-28T12:58:06;10.30;99.90
10702;DHT22;5402;50.004;8.246;2024-02-28T13:00:35;10.20;99.90
10702;DHT22;5402;50.004;8.246;2024-02-28T13:03:01;10.30;99.90
10702;DHT22;5402;50.004;8.246;2024-02-28T13:05:28;10.40;99.90
10702;DHT22;5402;50.004;8.246;2024-02-28T13:07:55;10.40;99.90
10702;DHT22;5402;50.004;8.246;2024-02-28T13:10:22;10.60;99.90
10702;DHT22;5402;50.004;8.246;2024-02-28T13:12:49;10.70;99.90
10702;DHT22;5402;50.004;8.246;2024-02-28T13:15:16;10.50;99.90
10702;DHT22;5402;50.004;8.246;2024-02-28T13:17:44;10.30;99.90
10702;DHT22;5402;50.004;8.246;2024-02-28T13:20:12;10.10;99.90
10702;DHT22;5402;50.004;8.246;2024-02-28T13:22:39;10.20;99.90
10702;DHT22;5402;50.004;8.246;2024-02-28T13:25:06;10.10;99.90
10702;DHT22;5402;50.004;8.246;2024-02-28T13:27:34;10.10;99.90
10702;DHT22;5402;50.004;8.246;2024-02-28T13:30:01;10.40;99.90
10702;DHT22;5402;50.004;8.246;2024-02-28T13:32:28;10.40;99.90
10702;DHT22;5402;50.004;8.246;2024-02-28T13:34:56;10.50;99.90
10702;DHT22;5402;50.004;8.246;2024-02-28T13:37:23;10.50;99.90
10702;DHT22;5402;50.004;8.246;2024-02-28T13:39:50;10.60;99.90
10702;DHT22;5402;50.004;8.246;2024-02-28T13:42:17;10.70;99.90
10702;DHT22;5402;50.004;8.246;2024-02-28T13:44:45;10.70;99.90
10702;DHT22;5402;50.004;8.246;2024-02-28T13:47:12;10.60;99.90
10702;DHT22;5402;50.004;8.246;2024-02-28T13:49:39;10.70;99.90
10702;DHT22;5402;50.004;8.246;2024-02-28T13:52:08;10.70;99.90
10702;DHT22;5402;50.004;8.246;2024-02-28T13:54:34;10.70;99.90
10702;DHT22;5402;50.004;8.246;2024-02-28T13:57:01;10.60;99.90
10702;DHT22;5402;50.004;8.246;2024-02-28T13:59:29;10.60;99.90
10702;DHT22;5402;50.004;8.246;2024-02-28T14:01:56;10.60;99.90
10702;DHT22;5402;50.004;8.246;2024-02-28T14:04:25;10.60;99.90
10702;DHT22;5402;50.004;8.246;2024-02-28T14:06:51;10.50;99.90
10702;DHT22;5402;50.004;8.246;2024-02-28T14:09:20;10.50;99.90
10702;DHT22;5402;50.004;8.246;2024-02-28T14:11:48;10.50;99.90
10702;DHT22;5402;50.004;8.246;2024-02-28T14:14:15;10.50;99.90
10702;DHT22;5402;50.004;8.246;2024-02-28T14:16:42;10.50;99.90
10702;DHT22;5402;50.004;8.246;2024-02-28T14:19:09;10.50;99.90
10702;DHT22;5402;50.004;8.246;2024-02-28T14:21:35;10.40;99.90
10702;DHT22;5402;50.004;8.246;2024-02-28T14:24:02;10.30;99.90
10702;DHT22;5402;50.004;8.246;2024-02-28T14:26:30;10.30;99.90
10702;DHT22;5402;50.004;8.246;2024-02-28T14:28:57;10.30;99.90
10702;DHT22;5402;50.004;8.246;2024-02-28T14:31:24;10.40;99.90
10702;DHT22;5402;50.004;8.246;2024-02-28T14:33:52;10.50;99.90
10702;DHT22;5402;50.004;8.246;2024-02-28T14:36:19;10.50;99.90
10702;DHT22;5402;50.004;8.246;2024-02-28T14:38:46;10.60;99.90
10702;DHT22;5402;50.004;8.246;2024-02-28T14:41:13;10.70;99.90
10702;DHT22;5402;50.004;8.246;2024-02-28T14:43:41;10.70;99.90
10702;DHT22;5402;50.004;8.246;2024-02-28T14:46:08;10.70;99.90
10702;DHT22;5402;50.004;8.246;2024-02-28T14:48:36;10.70;99.90
10702;DHT22;5402;50.004;8.246;2024-02-28T14:51:03;10.60;99.90
10702;DHT22;5402;50.004;8.246;2024-02-28T14:53:31;10.60;99.90
10702;DHT22;5402;50.004;8.246;2024-02-28T14:55:58;10.50;99.90
10702;DHT22;5402;50.004;8.246;2024-02-28T14:58:25;10.50;99.90
10702;DHT22;5402;50.004;8.246;2024-02-28T15:00:53;10.50;99.90
10702;DHT22;5402;50.004;8.246;2024-02-28T15:03:23;10.60;99.90
10702;DHT22;5402;50.004;8.246;2024-02-28T15:05:51;10.50;99.90
10702;DHT22;5402;50.004;8.246;2024-02-28T15:08:17;10.40;99.90
10702;DHT22;5402;50.004;8.246;2024-02-28T15:10:44;10.70;99.90
10702;DHT22;5402;50.004;8.246;2024-02-28T15:13:11;10.20;99.90
10702;DHT22;5402;50.004;8.246;2024-02-28T15:15:37;10.10;99.90
10702;DHT22;5402;50.004;8.246;2024-02-28T15:18:06;10.40;99.90
10702;DHT22;5402;50.004;8.246;2024-02-28T15:20:33;10.20;99.90
10702;DHT22;5402;50.004;8.246;2024-02-28T15:23:00;10.20;99.90
10702;DHT22;5402;50.004;8.246;2024-02-28T15:25:26;10.40;99.90
10702;DHT22;5402;50.004;8.246;2024-02-28T15:27:53;10.20;99.90
10702;DHT22;5402;50.004;8.246;2024-02-28T15:30:20;10.20;99.90
10702;DHT22;5402;50.004;8.246;2024-02-28T15:32:47;10.00;99.90
10702;DHT22;5402;50.004;8.246;2024-02-28T15:35:15;10.00;99.90
10702;DHT22;5402;50.004;8.246;2024-02-28T15:37:43;10.00;99.90
10702;DHT22;5402;50.004;8.246;2024-02-28T15:40:11;10.00;99.90
10702;DHT22;5402;50.004;8.246;2024-02-28T15:42:37;10.00;99.90
10702;DHT22;5402;50.004;8.246;2024-02-28T15:45:05;10.00;99.90
10702;DHT22;5402;50.004;8.246;2024-02-28T15:47:32;9.90;99.90
10702;DHT22;5402;50.004;8.246;2024-02-28T15:49:59;9.90;99.90
10702;DHT22;5402;50.004;8.246;2024-02-28T15:52:29;9.90;99.90
10702;DHT22;5402;50.004;8.246;2024-02-28T15:54:56;9.90;99.90
10702;DHT22;5402;50.004;8.246;2024-02-28T15:57:23;9.90;99.90